Bloomfield, NM

4:38 AM MDT on July 31, 2016 (GMT -0600)
Ute and Loma Linda | | Change Station

Elev 5453 ft 36.74 °N, 108.20 °W | Updated 1 minute ago

Mostly Cloudy
Mostly Cloudy
68.5 °F
Feels Like 68.5 °F
N
4.2
Wind Variable Wind from NNE

Today
High -- | Low -- °F
--% Chance of Precip.
Yesterday
High -- | Low -- °F
Precip. -- in
Pressure 29.92 in
Visibility 10.0 miles
Clouds Mostly Cloudy 10000 ft
Dew Point 54 °F
Humidity 61%
Rainfall 0.00 in
Snow Depth Not available.
6:17 AM 8:17 PM
Waning Crescent, 7% visible
METAR KFMN 310953Z AUTO 07005KT 10SM BKN100 21/12 A3015 RMK AO2 RAE01 SLP131 P0000 T02110117
Pressure 29.92 in
Visibility 10.0 miles
Clouds Mostly Cloudy 10000 ft
Dew Point 54 °F
Humidity 61%
Rainfall 0.00 in
Snow Depth Not available.
6:17 AM 8:17 PM
Waning Crescent, 7% visible
METAR KFMN 310953Z AUTO 07005KT 10SM BKN100 21/12 A3015 RMK AO2 RAE01 SLP131 P0000 T02110117

10-Day Weather Forecast

Almanac

Astronomy

Jul. 31, 2016 Rise Set
Actual Time
Civil Twilight
Nautical Twilight
Astronomical Twilight
Moon
Length of Visible Light
Length of Day
Tomorrow will be .
, % of the Moon is Illuminated

Today's Extremes

State Highs State Lows

Community

WunderPhotos

Upload Photos

1,928,783 photos uploaded!

WunderBlog® & News

Nearby

Air Quality

  Air Quality AQ Index Pollutant
Not available.

Snow Depth

Station Depth Elevation

Earthquake Activity

City Distance Mag. Time & Date
Minimum magnitude displayed is 2.5.

Coastal Water Temperatures

Place Temperature

Stations

Nearby Weather Stations

Station Location Temp. Windchill Dew Point Humidity Wind Precip. Elev Updated Type
                   

Watches & Warnings

There are currently no watches in effect.